Time;durP1;ratioP1;P1;durP2;ratioP2;P2;SDS_P1;SDS_P2;PMS_P1;PMS_P2;Temp;Humidity;BMP_temperature;BMP_pressure;BME280_temperature;BME280_humidity;BME280_pressure;Samples;Min_cycle;Max_cycle;Signal;HPM_P1;HPM_P2
2021/03/29 00:02:14;;;;;;;7.37;5.13;;;9.30;94.50;;;;;;5075812;28;20273;-59
2021/03/29 00:04:40;;;;;;;6.50;4.80;;;9.30;94.60;;;;;;5076433;28;20622;-54
2021/03/29 00:07:08;;;;;;;8.47;5.00;;;9.30;94.80;;;;;;5076265;28;20194;-58
2021/03/29 00:09:35;;;;;;;8.60;5.00;;;9.20;94.80;;;;;;5076065;28;20257;-56
2021/03/29 00:12:04;;;;;;;9.90;4.87;;;9.20;94.80;;;;;;5076401;28;20178;-49
2021/03/29 00:14:31;;;;;;;8.13;4.63;;;9.20;94.80;;;;;;5075964;28;20190;-58
2021/03/29 00:16:57;;;;;;;5.90;4.50;;;9.30;94.80;;;;;;5076581;28;20198;-58
2021/03/29 00:19:23;;;;;;;6.07;4.80;;;9.20;95.00;;;;;;5075779;28;20213;-57
2021/03/29 00:21:49;;;;;;;8.27;5.07;;;9.10;95.30;;;;;;5076084;28;20186;-54
2021/03/29 00:24:16;;;;;;;7.13;4.77;;;9.10;95.40;;;;;;5076274;28;20527;-48
2021/03/29 00:26:42;;;;;;;5.70;4.73;;;9.20;95.40;;;;;;5076466;28;20369;-49
2021/03/29 00:29:08;;;;;;;5.90;4.47;;;9.10;95.40;;;;;;5075337;28;20175;-48
2021/03/29 00:31:34;;;;;;;6.57;5.40;;;9.20;95.60;;;;;;5074739;28;20255;-50
2021/03/29 00:34:01;;;;;;;6.67;4.57;;;9.10;95.50;;;;;;5076730;28;20269;-60
2021/03/29 00:36:28;;;;;;;6.90;5.20;;;9.20;95.50;;;;;;5074989;28;20264;-50
2021/03/29 00:38:55;;;;;;;7.77;5.73;;;9.20;95.60;;;;;;5075842;28;20178;-60
2021/03/29 00:41:22;;;;;;;9.03;5.43;;;9.20;95.50;;;;;;5076235;28;20190;-49
2021/03/29 00:43:49;;;;;;;8.77;5.87;;;9.20;95.80;;;;;;5075832;28;20171;-56
2021/03/29 00:46:17;;;;;;;8.87;5.73;;;9.20;95.80;;;;;;5075317;28;20697;-59
2021/03/29 00:48:44;;;;;;;7.43;5.70;;;9.20;95.80;;;;;;5075339;28;20182;-57
2021/03/29 00:51:14;;;;;;;10.60;5.70;;;9.20;95.80;;;;;;5074615;28;20240;-56
2021/03/29 00:53:53;;;;;;;8.23;5.97;;;9.20;95.90;;;;;;5075815;28;20174;-51
2021/03/29 00:56:20;;;;;;;8.57;5.43;;;9.20;96.00;;;;;;5074915;28;20636;-48
2021/03/29 00:58:47;;;;;;;8.23;5.47;;;9.20;96.10;;;;;;5075738;28;20182;-48
2021/03/29 01:01:16;;;;;;;7.90;5.33;;;9.10;96.20;;;;;;5075657;28;20166;-48
2021/03/29 01:03:46;;;;;;;12.17;5.97;;;9.10;96.20;;;;;;5075312;28;20220;-54
2021/03/29 01:06:15;;;;;;;11.20;6.13;;;9.20;96.30;;;;;;5075474;28;20654;-54
2021/03/29 01:08:45;;;;;;;8.07;5.23;;;9.10;96.20;;;;;;5075153;28;20185;-56
2021/03/29 01:11:14;;;;;;;6.53;4.97;;;9.20;96.40;;;;;;5074956;28;20231;-52
2021/03/29 01:13:52;;;;;;;7.20;4.70;;;9.20;96.40;;;;;;5075879;28;20209;-49
2021/03/29 01:16:21;;;;;;;7.20;4.37;;;9.20;96.40;;;;;;5074484;28;20646;-51
2021/03/29 01:18:51;;;;;;;7.33;4.77;;;9.20;96.10;;;;;;5075322;28;20174;-56
2021/03/29 01:21:49;;;;;;;5.80;4.30;;;9.10;96.20;;;;;;5075969;28;20592;-56
2021/03/29 01:24:29;;;;;;;5.30;4.40;;;9.10;96.80;;;;;;5074911;28;20650;-49
2021/03/29 01:26:55;;;;;;;8.67;5.37;;;9.00;96.40;;;;;;5074700;28;20201;-59
2021/03/29 01:29:30;;;;;;;8.53;5.70;;;9.00;96.50;;;;;;5074977;28;20173;-60
2021/03/29 01:31:56;;;;;;;7.80;5.17;;;8.90;96.50;;;;;;5074772;28;20185;-48
2021/03/29 01:34:22;;;;;;;9.57;5.03;;;8.90;96.60;;;;;;5074453;28;20170;-55
2021/03/29 01:36:48;;;;;;;8.90;5.63;;;8.90;96.60;;;;;;5074750;28;20229;-58
2021/03/29 01:39:14;;;;;;;6.83;5.03;;;8.90;96.70;;;;;;5074583;28;20182;-49
2021/03/29 01:41:41;;;;;;;7.00;4.77;;;9.00;96.60;;;;;;5074397;28;20174;-50
2021/03/29 01:44:08;;;;;;;7.43;5.20;;;9.00;96.70;;;;;;5074109;28;20179;-49
2021/03/29 01:46:34;;;;;;;9.20;5.43;;;9.00;96.70;;;;;;5074174;28;20207;-60
2021/03/29 01:49:00;;;;;;;8.87;5.03;;;9.00;96.60;;;;;;5074911;28;20166;-49
2021/03/29 01:51:28;;;;;;;9.13;5.17;;;9.10;96.80;;;;;;5073898;28;20569;-49
2021/03/29 01:53:55;;;;;;;8.40;5.47;;;9.10;96.80;;;;;;5073926;28;20178;-48
2021/03/29 01:56:20;;;;;;;8.07;5.20;;;9.20;96.80;;;;;;5074171;28;20198;-49
2021/03/29 01:58:46;;;;;;;7.73;5.23;;;9.20;96.80;;;;;;5073871;28;20185;-49
2021/03/29 02:01:12;;;;;;;6.17;4.93;;;9.30;96.80;;;;;;5074501;28;20170;-54
2021/03/29 02:03:40;;;;;;;6.57;4.30;;;9.20;97.00;;;;;;5073789;28;20205;-53
2021/03/29 02:06:07;;;;;;;5.97;4.30;;;9.20;96.90;;;;;;5074033;28;20210;-50
2021/03/29 02:08:34;;;;;;;6.37;4.40;;;9.10;97.00;;;;;;5074142;28;20189;-59
2021/03/29 02:11:00;;;;;;;6.53;4.60;;;9.10;97.10;;;;;;5074288;28;20170;-59
2021/03/29 02:13:30;;;;;;;6.03;4.73;;;9.10;97.10;;;;;;5075315;28;20182;-48
2021/03/29 02:16:02;;;;;;;9.70;5.20;;;9.00;97.20;;;;;;5075204;28;20387;-59
2021/03/29 02:18:31;;;;;;;8.13;5.43;;;9.00;97.40;;;;;;5073827;28;20206;-58
2021/03/29 02:21:03;;;;;;;8.60;5.50;;;8.90;97.50;;;;;;5073928;28;20257;-60
2021/03/29 02:23:30;;;;;;;7.57;4.90;;;8.90;97.50;;;;;;5074419;28;20186;-49
2021/03/29 02:25:57;;;;;;;7.60;4.77;;;8.80;97.50;;;;;;5074274;28;20220;-58
2021/03/29 02:28:23;;;;;;;6.10;4.30;;;8.70;97.60;;;;;;5074537;28;20178;-48
2021/03/29 02:30:49;;;;;;;6.40;4.30;;;8.80;97.50;;;;;;5075008;28;20567;-57
2021/03/29 02:33:17;;;;;;;8.63;4.27;;;8.70;97.70;;;;;;5073580;28;20174;-49
2021/03/29 02:35:44;;;;;;;9.07;4.53;;;8.60;98.20;;;;;;5073712;28;20201;-60
2021/03/29 02:38:15;;;;;;;7.53;4.00;;;8.50;98.70;;;;;;5074111;28;20213;-54
2021/03/29 02:40:41;;;;;;;6.33;4.30;;;8.40;99.10;;;;;;5073981;28;20625;-57
2021/03/29 02:43:07;;;;;;;6.83;4.43;;;8.20;99.60;;;;;;5074077;28;20537;-55
2021/03/29 02:45:37;;;;;;;5.83;4.10;;;8.20;99.90;;;;;;5073631;28;20214;-48
2021/03/29 02:48:09;;;;;;;8.20;4.10;;;8.10;99.90;;;;;;5056513;28;20705;-51
2021/03/29 02:50:38;;;;;;;5.43;4.13;;;8.10;99.90;;;;;;5053917;28;20175;-58
2021/03/29 02:53:11;;;;;;;6.30;3.87;;;8.20;99.90;;;;;;5055680;28;20578;-60
2021/03/29 02:55:38;;;;;;;6.53;4.20;;;8.00;99.90;;;;;;5058128;28;20191;-56
2021/03/29 02:58:05;;;;;;;5.90;3.80;;;8.00;99.90;;;;;;5057281;28;20639;-48
2021/03/29 03:00:33;;;;;;;7.27;4.20;;;8.00;99.90;;;;;;5057393;28;20194;-58
2021/03/29 03:03:01;;;;;;;8.20;4.43;;;7.90;99.90;;;;;;5058358;28;20179;-58
2021/03/29 03:05:28;;;;;;;7.37;4.30;;;8.00;99.90;;;;;;5058253;28;20210;-53
2021/03/29 03:07:55;;;;;;;7.77;4.37;;;8.00;99.90;;;;;;5057958;28;20175;-60
2021/03/29 03:10:21;;;;;;;6.60;4.40;;;8.20;99.90;;;;;;5058026;28;20175;-50
2021/03/29 03:12:48;;;;;;;6.20;4.10;;;8.20;99.90;;;;;;5057368;28;20175;-49
2021/03/29 03:15:18;;;;;;;7.50;4.00;;;8.20;99.90;;;;;;5058691;28;20215;-55
2021/03/29 03:17:45;;;;;;;9.10;4.20;;;8.30;99.90;;;;;;5056636;28;20188;-48
2021/03/29 03:20:12;;;;;;;9.43;5.30;;;8.20;99.90;;;;;;5057349;28;20558;-51
2021/03/29 03:22:57;;;;;;;9.43;5.90;;;8.30;99.90;;;;;;5057167;28;20233;-50
2021/03/29 03:25:26;;;;;;;9.33;5.03;;;8.20;99.90;;;;;;5057021;28;20667;-49
2021/03/29 03:27:52;;;;;;;7.53;4.70;;;8.10;99.90;;;;;;5056901;28;20175;-60
2021/03/29 03:30:24;;;;;;;7.07;4.60;;;8.10;99.90;;;;;;5057193;28;20175;-57
2021/03/29 03:32:51;;;;;;;5.60;4.50;;;8.10;99.90;;;;;;5057142;28;20182;-57
2021/03/29 03:35:17;;;;;;;8.83;4.70;;;8.10;99.90;;;;;;5057792;28;20234;-50
2021/03/29 03:37:49;;;;;;;9.50;4.77;;;8.10;99.90;;;;;;5056250;28;20219;-57
2021/03/29 03:40:16;;;;;;;6.10;4.50;;;8.10;99.90;;;;;;5056766;28;20581;-57
2021/03/29 03:42:43;;;;;;;7.80;5.10;;;8.20;99.90;;;;;;5057708;28;20183;-60
2021/03/29 03:45:09;;;;;;;8.70;4.80;;;8.10;99.90;;;;;;5056913;28;20231;-51
2021/03/29 03:47:37;;;;;;;6.70;5.03;;;8.10;99.90;;;;;;5056554;28;20244;-48
2021/03/29 03:50:05;;;;;;;7.97;5.57;;;8.20;99.90;;;;;;5056494;28;20175;-50
2021/03/29 03:52:31;;;;;;;8.30;5.33;;;8.10;99.90;;;;;;5056245;28;20175;-60
2021/03/29 03:54:57;;;;;;;7.70;5.10;;;8.10;99.90;;;;;;5056375;28;20168;-54
2021/03/29 03:57:23;;;;;;;9.17;5.70;;;8.10;99.90;;;;;;5056653;28;20182;-49
2021/03/29 03:59:48;;;;;;;6.03;4.70;;;8.10;99.90;;;;;;5056406;28;20167;-59
2021/03/29 04:02:14;;;;;;;9.47;4.80;;;7.90;99.90;;;;;;5055381;28;20193;-49
2021/03/29 04:04:40;;;;;;;6.97;4.60;;;7.80;99.90;;;;;;5055822;28;20489;-59
2021/03/29 04:07:05;;;;;;;7.97;4.97;;;7.80;99.90;;;;;;5055788;28;20217;-53
2021/03/29 04:12:05;;;;;;;6.80;5.00;;;7.80;99.90;;;;;;5056297;28;20174;-48
2021/03/29 04:14:30;;;;;;;6.57;4.77;;;7.80;99.90;;;;;;5057006;28;20191;-57
2021/03/29 04:16:56;;;;;;;6.00;4.20;;;7.80;99.90;;;;;;5056802;28;20551;-58
2021/03/29 04:19:21;;;;;;;6.10;4.67;;;7.80;99.90;;;;;;5055861;28;20179;-49
2021/03/29 04:21:47;;;;;;;8.40;4.60;;;7.80;99.90;;;;;;5055679;28;20210;-50
2021/03/29 04:24:12;;;;;;;6.57;4.17;;;7.80;99.90;;;;;;5056328;28;20258;-56
2021/03/29 04:26:41;;;;;;;10.03;4.70;;;7.80;99.90;;;;;;5055462;28;20261;-48
2021/03/29 04:29:07;;;;;;;8.80;5.13;;;7.90;99.90;;;;;;5056321;28;20175;-53
2021/03/29 04:31:33;;;;;;;5.97;4.10;;;7.90;99.90;;;;;;5056068;28;20191;-54
2021/03/29 04:33:58;;;;;;;5.27;4.13;;;7.90;99.90;;;;;;5056760;28;20575;-57
2021/03/29 04:36:24;;;;;;;6.53;4.00;;;7.80;99.90;;;;;;5055454;28;20207;-60
2021/03/29 04:38:49;;;;;;;5.80;3.97;;;7.70;99.90;;;;;;5056155;28;20175;-48
2021/03/29 04:41:15;;;;;;;6.73;4.00;;;7.70;99.90;;;;;;5056261;28;20172;-48
2021/03/29 04:43:40;;;;;;;5.23;4.20;;;7.80;99.90;;;;;;5056381;28;20175;-48
2021/03/29 04:46:06;;;;;;;6.80;4.17;;;7.80;99.90;;;;;;5055638;28;20203;-48
2021/03/29 04:48:31;;;;;;;6.23;3.93;;;7.90;99.90;;;;;;5055041;28;20541;-48
2021/03/29 04:50:57;;;;;;;6.63;3.80;;;7.90;99.90;;;;;;5055706;28;20583;-48
2021/03/29 04:53:22;;;;;;;7.57;4.40;;;7.80;99.90;;;;;;5055866;28;20167;-58
2021/03/29 04:55:48;;;;;;;7.47;4.37;;;9.30;99.90;;;;;;5056012;28;20193;-57
2021/03/29 04:58:13;;;;;;;6.10;4.00;;;7.70;99.90;;;;;;5055913;28;20665;-56
2021/03/29 05:00:39;;;;;;;6.07;4.00;;;7.80;99.90;;;;;;5069762;28;20225;-55
2021/03/29 05:03:05;;;;;;;7.90;4.40;;;7.80;99.90;;;;;;5081102;28;20231;-55
2021/03/29 05:05:30;;;;;;;4.87;3.90;;;7.90;99.90;;;;;;5081239;28;20224;-54
2021/03/29 05:07:56;;;;;;;5.87;3.90;;;7.70;99.90;;;;;;5080627;28;20175;-57
2021/03/29 05:10:21;;;;;;;6.23;3.60;;;7.70;99.90;;;;;;5089971;28;20178;-59
2021/03/29 05:12:47;;;;;;;7.63;3.83;;;7.70;99.90;;;;;;5082810;28;20252;-60
2021/03/29 05:15:13;;;;;;;7.67;4.23;;;7.70;99.90;;;;;;5078270;28;20205;-56
2021/03/29 05:17:39;;;;;;;7.10;4.03;;;7.70;99.90;;;;;;5065684;28;20591;-54
2021/03/29 05:20:06;;;;;;;5.97;3.77;;;7.70;99.90;;;;;;5071229;28;20269;-48
2021/03/29 05:22:31;;;;;;;5.13;3.87;;;7.70;99.90;;;;;;5078144;28;20554;-56
2021/03/29 05:24:57;;;;;;;5.77;4.07;;;7.70;99.90;;;;;;5055255;28;20175;-52
2021/03/29 05:27:22;;;;;;;7.20;4.20;;;7.80;99.90;;;;;;5055545;28;20254;-50
2021/03/29 05:29:48;;;;;;;7.37;4.60;;;7.70;99.90;;;;;;5053154;28;20175;-51
2021/03/29 05:32:25;;;;;;;6.73;4.43;;;7.80;99.90;;;;;;5053799;28;20258;-56
2021/03/29 05:34:53;;;;;;;7.60;4.70;;;7.80;99.90;;;;;;5055313;28;20175;-48
2021/03/29 05:37:20;;;;;;;6.37;4.90;;;7.90;99.90;;;;;;5055261;28;20191;-48
2021/03/29 05:39:46;;;;;;;6.87;4.30;;;7.90;99.90;;;;;;5052057;28;20175;-56
2021/03/29 05:42:11;;;;;;;5.20;4.33;;;7.90;99.90;;;;;;5071758;28;20575;-56
2021/03/29 05:44:37;;;;;;;7.53;4.57;;;7.90;99.90;;;;;;5074716;28;20645;-50
2021/03/29 05:47:04;;;;;;;10.40;5.37;;;8.00;99.90;;;;;;5074625;28;20259;-51
2021/03/29 05:49:31;;;;;;;9.03;5.10;;;8.00;99.90;;;;;;5069843;28;20226;-60
2021/03/29 05:51:57;;;;;;;7.90;5.20;;;8.10;99.90;;;;;;5078865;28;20609;-57
2021/03/29 05:54:23;;;;;;;9.60;5.30;;;8.20;99.90;;;;;;5067409;28;20265;-57
2021/03/29 05:56:50;;;;;;;7.40;5.17;;;8.20;99.90;;;;;;5066857;28;20202;-48
2021/03/29 05:59:22;;;;;;;8.80;5.23;;;8.30;99.90;;;;;;5078790;28;20205;-58
2021/03/29 06:01:50;;;;;;;8.30;4.83;;;8.30;99.90;;;;;;5061610;28;20218;-48
2021/03/29 06:04:46;;;;;;;6.77;4.60;;;8.30;99.90;;;;;;5055146;28;20190;-55
2021/03/29 06:07:17;;;;;;;7.43;5.13;;;8.40;99.90;;;;;;5075091;28;20194;-51
2021/03/29 06:09:44;;;;;;;5.53;4.53;;;8.40;99.90;;;;;;5073183;28;20220;-57
2021/03/29 06:12:11;;;;;;;7.47;4.60;;;8.50;99.90;;;;;;5067358;28;20191;-56
2021/03/29 06:14:36;;;;;;;8.30;4.80;;;8.50;99.90;;;;;;5068171;28;20228;-55
2021/03/29 06:17:07;;;;;;;6.50;4.40;;;8.50;99.90;;;;;;5072336;28;20202;-54
2021/03/29 06:19:49;;;;;;;7.30;4.53;;;8.50;99.90;;;;;;5074753;28;20159;-48
2021/03/29 06:22:27;;;;;;;6.33;4.20;;;8.50;99.90;;;;;;5065180;28;20218;-52
2021/03/29 06:24:57;;;;;;;5.83;4.23;;;8.50;99.90;;;;;;5073839;28;20186;-54
2021/03/29 06:27:28;;;;;;;5.47;4.27;;;8.50;99.90;;;;;;5076527;28;20231;-48
2021/03/29 06:30:13;;;;;;;5.93;4.53;;;8.60;99.90;;;;;;5079416;28;20189;-57
2021/03/29 06:33:05;;;;;;;5.50;4.47;;;8.70;99.90;;;;;;5079284;28;20189;-58
2021/03/29 06:35:36;;;;;;;7.30;5.20;;;8.70;99.90;;;;;;5079046;28;20222;-56
2021/03/29 06:38:26;;;;;;;8.63;5.20;;;8.70;99.90;;;;;;5080341;28;20193;-50
2021/03/29 06:40:52;;;;;;;7.50;6.50;;;8.80;99.90;;;;;;5077324;28;20229;-54
2021/03/29 06:43:37;;;;;;;9.00;6.13;;;8.80;99.90;;;;;;5078444;28;20202;-57
2021/03/29 06:46:05;;;;;;;8.23;5.03;;;8.80;99.90;;;;;;5078288;28;20665;-48
2021/03/29 06:48:38;;;;;;;6.47;4.13;;;8.70;99.90;;;;;;5077402;28;20182;-48
2021/03/29 06:51:16;;;;;;;5.57;4.07;;;8.70;99.90;;;;;;5077450;28;20198;-50
2021/03/29 06:53:52;;;;;;;4.80;4.03;;;8.70;99.90;;;;;;5077545;28;20182;-54
2021/03/29 06:56:35;;;;;;;6.47;4.03;;;8.70;99.90;;;;;;5078684;28;20247;-55
2021/03/29 06:59:04;;;;;;;5.60;4.33;;;8.60;99.90;;;;;;5078438;28;20257;-54
2021/03/29 07:01:32;;;;;;;4.97;4.03;;;8.60;99.90;;;;;;5078008;28;20283;-51
2021/03/29 07:03:58;;;;;;;8.37;4.33;;;8.60;99.90;;;;;;5077520;28;20259;-50
2021/03/29 07:06:29;;;;;;;5.57;4.00;;;8.60;99.90;;;;;;5077453;28;20290;-55
2021/03/29 07:09:06;;;;;;;5.57;4.10;;;8.60;99.90;;;;;;5077646;28;20709;-53
2021/03/29 07:11:33;;;;;;;6.37;4.50;;;8.70;99.90;;;;;;5077769;28;20166;-48
2021/03/29 07:13:59;;;;;;;4.70;4.10;;;8.90;99.90;;;;;;5078382;28;20175;-57
2021/03/29 07:16:26;;;;;;;4.80;3.83;;;9.00;99.90;;;;;;5076651;28;20225;-48
2021/03/29 07:18:56;;;;;;;5.83;4.13;;;9.20;99.90;;;;;;5077480;28;20178;-55
2021/03/29 07:21:21;;;;;;;8.10;4.30;;;9.30;99.90;;;;;;5058566;28;20187;-47
2021/03/29 07:23:47;;;;;;;7.77;4.30;;;9.30;99.90;;;;;;5056940;28;20178;-49
2021/03/29 07:26:45;;;;;;;8.43;4.47;;;9.40;99.90;;;;;;5057103;28;20210;-54
2021/03/29 07:29:24;;;;;;;6.97;4.87;;;9.40;99.90;;;;;;5057887;28;20160;-55
2021/03/29 07:31:52;;;;;;;5.47;4.27;;;9.50;99.90;;;;;;5057337;28;20709;-49
2021/03/29 07:34:39;;;;;;;7.53;4.40;;;9.80;99.90;;;;;;5056903;28;20239;-48
2021/03/29 07:37:27;;;;;;;6.57;4.70;;;10.10;99.90;;;;;;5056760;28;20218;-48
2021/03/29 07:39:53;;;;;;;4.90;4.40;;;10.60;99.90;;;;;;5057365;28;20163;-58
2021/03/29 07:42:25;;;;;;;7.13;4.20;;;11.00;99.90;;;;;;5056057;28;20175;-49
2021/03/29 07:44:57;;;;;;;6.03;4.10;;;11.40;99.70;;;;;;5056786;28;20679;-49
2021/03/29 07:47:39;;;;;;;6.97;4.50;;;11.70;98.60;;;;;;5058394;28;20171;-48
2021/03/29 07:50:07;;;;;;;5.07;3.83;;;11.90;98.70;;;;;;5056339;28;20171;-57
2021/03/29 07:52:40;;;;;;;5.23;4.10;;;12.30;98.60;;;;;;5055856;28;20647;-48
2021/03/29 07:55:28;;;;;;;7.20;4.93;;;12.50;97.20;;;;;;5056685;28;20236;-59
2021/03/29 07:57:57;;;;;;;6.33;4.37;;;12.70;97.20;;;;;;5056531;28;20160;-59
2021/03/29 08:00:22;;;;;;;7.50;4.27;;;12.70;96.20;;;;;;5056744;28;20167;-60
2021/03/29 08:03:14;;;;;;;5.67;4.30;;;12.50;96.00;;;;;;5055542;28;20205;-48
2021/03/29 08:05:47;;;;;;;7.93;4.20;;;12.60;96.90;;;;;;5055234;28;20211;-48
2021/03/29 08:08:27;;;;;;;7.47;4.60;;;12.50;97.60;;;;;;5056776;28;20182;-55
2021/03/29 08:11:03;;;;;;;7.30;4.60;;;12.50;97.10;;;;;;5055846;28;20587;-55
2021/03/29 08:13:37;;;;;;;7.33;4.37;;;12.70;97.70;;;;;;5056707;28;20182;-48
2021/03/29 08:16:06;;;;;;;5.57;4.10;;;12.60;96.00;;;;;;5055832;28;20621;-49
2021/03/29 08:19:06;;;;;;;5.03;4.20;;;12.80;95.80;;;;;;5055878;28;20542;-59
2021/03/29 08:21:48;;;;;;;7.53;4.20;;;12.70;94.80;;;;;;5055376;28;20554;-53
2021/03/29 08:24:29;;;;;;;6.60;4.23;;;12.80;94.30;;;;;;5056184;28;20296;-48
2021/03/29 08:26:57;;;;;;;6.33;4.30;;;13.10;95.30;;;;;;5055104;28;20204;-48
2021/03/29 08:29:30;;;;;;;6.40;4.37;;;13.10;94.50;;;;;;5055641;28;20174;-59
2021/03/29 08:31:57;;;;;;;6.27;4.27;;;13.30;92.70;;;;;;5055740;28;20646;-59
2021/03/29 08:34:23;;;;;;;6.10;4.10;;;13.40;93.70;;;;;;5055373;28;20194;-48
2021/03/29 08:36:48;;;;;;;7.20;4.40;;;13.30;94.30;;;;;;5055361;28;20211;-48
2021/03/29 08:39:15;;;;;;;6.33;4.17;;;13.30;93.20;;;;;;5055399;28;20175;-57
2021/03/29 08:41:43;;;;;;;4.60;3.80;;;13.60;92.90;;;;;;5055081;28;20685;-54
2021/03/29 08:44:09;;;;;;;6.27;4.50;;;13.90;93.20;;;;;;5055395;28;20173;-53
2021/03/29 08:46:36;;;;;;;5.50;3.87;;;14.40;93.80;;;;;;5054938;28;20229;-48
2021/03/29 08:49:07;;;;;;;5.47;3.93;;;14.70;93.30;;;;;;5055144;28;20181;-57
2021/03/29 08:51:33;;;;;;;6.30;4.17;;;15.10;92.80;;;;;;5054232;28;20150;-59
2021/03/29 08:54:11;;;;;;;6.13;4.17;;;15.50;92.60;;;;;;5055400;28;20658;-53
2021/03/29 08:56:42;;;;;;;4.67;4.00;;;15.90;92.20;;;;;;5055079;28;20206;-48
2021/03/29 08:59:09;;;;;;;7.17;4.20;;;16.50;90.30;;;;;;5055029;28;20593;-56
2021/03/29 09:01:35;;;;;;;4.67;3.70;;;16.90;88.90;;;;;;5055263;28;20698;-54
2021/03/29 09:04:02;;;;;;;6.03;3.97;;;16.90;84.80;;;;;;5054488;28;20201;-58
2021/03/29 09:06:29;;;;;;;5.67;4.10;;;17.00;84.80;;;;;;5054882;28;20207;-50
2021/03/29 09:08:55;;;;;;;6.00;3.80;;;17.10;85.60;;;;;;5055295;28;20700;-49
2021/03/29 09:11:21;;;;;;;6.63;4.50;;;17.30;85.10;;;;;;5054608;28;20178;-58
2021/03/29 09:13:47;;;;;;;5.20;3.83;;;17.20;82.70;;;;;;5054956;28;20174;-51
2021/03/29 09:16:13;;;;;;;4.87;3.90;;;17.00;82.10;;;;;;5054066;28;20285;-48
2021/03/29 09:18:38;;;;;;;6.57;4.30;;;17.00;84.10;;;;;;5054716;28;20594;-56
2021/03/29 09:21:04;;;;;;;5.53;4.10;;;17.00;86.10;;;;;;5054355;28;20164;-53
2021/03/29 09:23:31;;;;;;;6.60;3.70;;;17.00;85.30;;;;;;5054989;28;20267;-56
2021/03/29 09:25:59;;;;;;;6.07;3.97;;;16.60;82.90;;;;;;5054546;28;20246;-48
2021/03/29 09:28:34;;;;;;;6.23;3.97;;;16.30;80.40;;;;;;5054994;28;20331;-54
2021/03/29 09:31:24;;;;;;;6.53;4.13;;;16.20;80.30;;;;;;5053863;28;20190;-48
2021/03/29 09:33:52;;;;;;;5.53;3.33;;;15.80;80.80;;;;;;5055884;28;20160;-48
2021/03/29 09:36:20;;;;;;;7.40;3.90;;;15.50;82.10;;;;;;5053952;28;20297;-48
2021/03/29 09:38:50;;;;;;;6.23;3.77;;;15.30;82.70;;;;;;5054499;28;20166;-49
2021/03/29 09:41:16;;;;;;;5.67;3.50;;;15.00;85.60;;;;;;5054432;28;20186;-52
2021/03/29 09:43:46;;;;;;;6.20;4.20;;;14.90;84.10;;;;;;5054850;28;20171;-60
2021/03/29 09:46:13;;;;;;;5.40;3.97;;;15.00;83.10;;;;;;5054397;28;20202;-49
2021/03/29 09:48:38;;;;;;;7.00;3.87;;;15.10;83.70;;;;;;5054451;28;20223;-48
2021/03/29 09:51:19;;;;;;;5.43;3.83;;;15.30;84.10;;;;;;5053695;28;20194;-48
2021/03/29 09:53:44;;;;;;;5.93;4.13;;;15.30;83.80;;;;;;5054393;28;20175;-58
2021/03/29 09:56:10;;;;;;;5.67;3.87;;;15.10;86.70;;;;;;5053652;28;20197;-51
2021/03/29 09:58:44;;;;;;;4.70;3.90;;;15.20;84.50;;;;;;5054156;28;20289;-56
2021/03/29 10:01:23;;;;;;;6.93;4.20;;;15.50;87.20;;;;;;5054235;28;20211;-50
2021/03/29 10:04:00;;;;;;;5.87;3.73;;;15.80;82.80;;;;;;5054517;28;20182;-52
2021/03/29 10:06:30;;;;;;;8.30;3.90;;;16.00;82.40;;;;;;5054057;28;20190;-56
2021/03/29 10:09:01;;;;;;;4.87;3.63;;;16.20;83.50;;;;;;5054467;28;20166;-58
2021/03/29 10:11:27;;;;;;;5.43;3.77;;;16.40;79.50;;;;;;5053988;28;20214;-56
2021/03/29 10:14:06;;;;;;;5.07;3.90;;;16.60;84.70;;;;;;5059159;28;20185;-55
2021/03/29 10:16:31;;;;;;;5.67;4.10;;;17.00;79.20;;;;;;5073930;28;20195;-50
2021/03/29 10:19:33;;;;;;;6.20;4.00;;;17.20;77.30;;;;;;5074497;28;20178;-60
2021/03/29 10:22:04;;;;;;;7.03;3.97;;;17.60;79.00;;;;;;5031517;28;20188;-48
2021/03/29 10:24:35;;;;;;;5.07;4.00;;;18.00;82.90;;;;;;5032061;28;20224;-59
2021/03/29 10:27:07;;;;;;;5.97;3.57;;;18.20;80.30;;;;;;5032015;28;20218;-47
2021/03/29 10:29:42;;;;;;;5.63;3.97;;;18.50;78.30;;;;;;5032056;28;20172;-48
2021/03/29 10:32:19;;;;;;;5.17;3.97;;;18.60;74.70;;;;;;5031862;28;20194;-55
2021/03/29 10:34:47;;;;;;;5.40;3.73;;;19.00;76.10;;;;;;5032197;28;20182;-48
2021/03/29 10:37:30;;;;;;;6.17;4.23;;;19.30;74.40;;;;;;5031188;28;20212;-46
2021/03/29 10:39:58;;;;;;;7.57;4.07;;;19.70;73.70;;;;;;5031657;28;20194;-47
2021/03/29 10:42:36;;;;;;;6.63;4.20;;;20.00;71.00;;;;;;5031680;28;20299;-48
2021/03/29 10:45:05;;;;;;;5.10;3.90;;;20.30;72.30;;;;;;5030984;28;20191;-52
2021/03/29 10:47:31;;;;;;;4.37;3.70;;;20.90;71.40;;;;;;5031532;28;20200;-58
2021/03/29 10:49:56;;;;;;;7.47;3.63;;;21.70;69.40;;;;;;5031272;28;20225;-55
2021/03/29 10:52:22;;;;;;;6.78;3.88;;;22.20;65.40;;;;;;5031785;28;20188;-51
2021/03/29 10:54:49;;;;;;;4.88;3.40;;;22.40;65.90;;;;;;5031511;28;20180;-48
2021/03/29 10:57:15;;;;;;;7.53;3.55;;;22.70;60.30;;;;;;5032978;28;20183;-54
2021/03/29 10:59:40;;;;;;;6.07;3.35;;;23.40;58.70;;;;;;5073845;28;20167;-58
2021/03/29 11:02:06;;;;;;;4.85;3.30;;;24.40;58.90;;;;;;5073269;28;20163;-49
2021/03/29 11:04:32;;;;;;;6.68;3.10;;;25.80;55.30;;;;;;5073942;28;20178;-47
2021/03/29 11:06:58;;;;;;;6.18;2.83;;;27.20;54.40;;;;;;5073775;28;20202;-52
2021/03/29 11:09:24;;;;;;;4.32;3.08;;;27.40;53.80;;;;;;5073802;28;20638;-59
2021/03/29 11:11:50;;;;;;;3.20;2.50;;;27.40;52.50;;;;;;5073666;28;20171;-47
2021/03/29 11:14:16;;;;;;;5.55;2.92;;;27.00;51.00;;;;;;5076312;28;20179;-47
2021/03/29 11:16:41;;;;;;;3.40;2.45;;;26.40;51.60;;;;;;5077557;28;20274;-56
2021/03/29 11:19:07;;;;;;;6.20;2.65;;;26.40;49.40;;;;;;5077386;28;20170;-47
2021/03/29 11:21:33;;;;;;;4.32;2.35;;;26.60;51.30;;;;;;5076949;28;20309;-48
2021/03/29 11:24:00;;;;;;;3.67;2.40;;;28.10;48.80;;;;;;5076815;28;20240;-52
2021/03/29 11:26:28;;;;;;;4.90;2.55;;;28.60;47.40;;;;;;5076823;28;20658;-59
2021/03/29 11:28:53;;;;;;;5.32;2.47;;;29.80;48.90;;;;;;5076789;28;20578;-48
2021/03/29 11:31:21;;;;;;;5.05;2.72;;;32.20;44.50;;;;;;5076222;28;20702;-48
2021/03/29 11:33:47;;;;;;;5.35;2.60;;;32.50;41.90;;;;;;5077187;28;20182;-49
2021/03/29 11:36:12;;;;;;;5.05;2.67;;;31.70;43.70;;;;;;5076037;28;20205;-58
2021/03/29 11:38:39;;;;;;;5.13;2.28;;;30.30;43.30;;;;;;5077329;28;20633;-57
2021/03/29 11:41:05;;;;;;;5.93;2.50;;;31.20;43.70;;;;;;5076679;28;20185;-53
2021/03/29 11:43:32;;;;;;;6.55;2.90;;;32.40;42.90;;;;;;5076418;28;20170;-59
2021/03/29 11:45:57;;;;;;;5.15;3.05;;;34.10;39.50;;;;;;5076357;28;20233;-47
2021/03/29 11:48:23;;;;;;;4.35;2.63;;;31.60;38.40;;;;;;5076376;28;20526;-47
2021/03/29 11:50:49;;;;;;;5.55;2.72;;;30.10;39.80;;;;;;5076250;28;20637;-58
2021/03/29 11:53:15;;;;;;;4.43;2.97;;;28.70;42.40;;;;;;5067096;28;20192;-49
2021/03/29 11:55:41;;;;;;;4.90;2.53;;;28.10;42.30;;;;;;5056585;28;20278;-50
2021/03/29 11:58:07;;;;;;;5.20;3.08;;;26.30;43.40;;;;;;5056943;28;20218;-58
2021/03/29 12:03:21;;;;;;;4.88;2.83;;;25.20;45.20;;;;;;5056628;28;20185;-55
2021/03/29 12:05:49;;;;;;;3.75;2.95;;;25.80;46.20;;;;;;5055960;28;20215;-54
2021/03/29 12:13:37;;;;;;;3.65;2.85;;;28.10;45.90;;;;;;5056510;28;20162;-59
2021/03/29 12:16:04;;;;;;;3.88;2.83;;;28.00;41.00;;;;;;5056487;28;20195;-59
2021/03/29 12:18:37;;;;;;;4.15;2.90;;;27.80;44.80;;;;;;5056362;28;20218;-55
2021/03/29 12:21:06;;;;;;;3.45;2.83;;;27.70;43.50;;;;;;5055373;28;20324;-48
2021/03/29 12:23:33;;;;;;;4.32;2.83;;;26.60;42.60;;;;;;5055911;28;20179;-58
2021/03/29 12:26:01;;;;;;;4.22;2.90;;;26.80;43.10;;;;;;5054478;28;20655;-49
2021/03/29 12:28:29;;;;;;;5.65;3.60;;;26.20;45.30;;;;;;5056247;28;20175;-59
2021/03/29 12:30:56;;;;;;;5.22;3.30;;;25.50;43.90;;;;;;5056754;28;20183;-59
2021/03/29 12:33:23;;;;;;;5.72;3.45;;;26.10;44.50;;;;;;5055863;28;20163;-60
2021/03/29 12:35:49;;;;;;;5.28;3.30;;;27.10;43.30;;;;;;5055653;28;20195;-60
2021/03/29 12:38:15;;;;;;;4.97;3.20;;;27.10;44.00;;;;;;5055807;28;20210;-48
2021/03/29 12:40:43;;;;;;;4.85;3.40;;;26.50;43.80;;;;;;5054771;28;20191;-48
2021/03/29 12:43:13;;;;;;;8.15;3.30;;;26.00;43.80;;;;;;5055259;28;20203;-57
2021/03/29 12:45:41;;;;;;;4.60;3.72;;;25.30;47.10;;;;;;5055208;28;20253;-50
2021/03/29 12:48:08;;;;;;;9.55;4.07;;;24.70;45.30;;;;;;5053732;28;20175;-50
2021/03/29 12:50:34;;;;;;;4.75;3.53;;;25.00;45.30;;;;;;5055019;28;20172;-53
2021/03/29 12:53:01;;;;;;;4.78;3.67;;;25.50;45.50;;;;;;5055525;28;20199;-59
2021/03/29 12:55:29;;;;;;;5.22;3.70;;;24.90;45.20;;;;;;5054986;28;20266;-56
2021/03/29 12:57:55;;;;;;;7.47;3.83;;;24.70;46.10;;;;;;5054731;28;20182;-57
2021/03/29 13:00:24;;;;;;;4.45;3.55;;;24.80;46.30;;;;;;5055151;28;20167;-59
2021/03/29 13:02:50;;;;;;;7.93;3.90;;;24.70;46.20;;;;;;5053317;28;20707;-48
2021/03/29 13:05:43;;;;;;;4.78;3.63;;;24.80;47.50;;;;;;5054845;28;20252;-48
2021/03/29 13:08:15;;;;;;;5.78;3.90;;;24.50;49.50;;;;;;5054176;28;20179;-53
2021/03/29 13:13:14;;;;;;;5.20;4.20;;;25.70;44.60;;;;;;5054874;28;20206;-58
2021/03/29 13:15:39;;;;;;;4.43;4.00;;;25.20;44.60;;;;;;5053823;28;20233;-56
2021/03/29 13:18:05;;;;;;;6.15;4.13;;;24.90;45.60;;;;;;5055253;28;20183;-59